Airfield :
LOGIN :

Register | Disclaimer

   EN    FR    IT 

 










Legend :    VFR   Marginal VFR   IFR   Intensive IFR   Very Intensive IFR
Visi :
Ceiling :
>= 8 km
>= 3000ft
5 to 8 km
1000 to 3000 ft
1500m to 5 km
500 to 1000 ft
800 to 1500m
200 to 500 ft
< 800m
< 200 ft
Symbols :   Thunderstorms  Fog  Heavy snow  Heavy precipitations  Wind > 20 kt
SIGMETs :     Misc.  Thunderstorms  Icing  Turbulence  Mountain Waves  Volcanic Ashes







- Airport Elevation : 41 ft


LIRE - Pratica di Mare Air Base Pomezia

CURRENT METAR :
  • 171455Z 25008KT CAVOK 25/21 Q1016 RMK SKC VIS MIN 9999 WIND THR13 26006KT WIND THR31 /////KT BLU

EXPIRED METARs :
  • 171355Z 24008KT CAVOK 26/20 Q1016 RMK SKC VIS MIN 9999 WIND THR13 25008KT WIND THR31/////KT BLU
  • 171255Z 24008KT CAVOK 26/18 Q1016 RMK SKC VIS MIN 9999 WIND THR13 25007KT WIND THR31 /////KT BLU

TAF TAF LIRE
Valid from the 17 at 15:00 until the 18 at 00:00 UTC


171400Z 1715/1724 25010KT CAVOK
BECMG 1716/1718 VRB03KT
No reported NOTAMs for that airfield.



MET'MAP, your aeronautical weather chart ! - Copyright ORBIFLY December 2007 - Disclaimer

ORBIFLY MET'MAP TEAM :

Programming & Development : Alexandra Zaïnal
Concept & Development : Baudouin d'Aumeries
Co-Development & Prog : Marc-Olivier Méhu
Technical & hardware support : Manuel Goepfert

Contact : metmap@orbifly.com




SOURCES & CREDITS :

   NOAA